sensor_id;sensor_type;location;lat;lon;timestamp;temperature;humidity
27940;DHT22;15275;51.716;14.324;2023-05-16T00:01:52;15.60;76.30
27940;DHT22;15275;51.716;14.324;2023-05-16T00:04:19;15.50;76.30
27940;DHT22;15275;51.716;14.324;2023-05-16T00:06:45;15.50;76.40
27940;DHT22;15275;51.716;14.324;2023-05-16T00:09:12;15.50;76.40
27940;DHT22;15275;51.716;14.324;2023-05-16T00:11:37;15.50;76.40
27940;DHT22;15275;51.716;14.324;2023-05-16T00:14:03;15.40;76.40
27940;DHT22;15275;51.716;14.324;2023-05-16T00:16:29;15.40;76.40
27940;DHT22;15275;51.716;14.324;2023-05-16T00:18:55;15.40;76.40
27940;DHT22;15275;51.716;14.324;2023-05-16T00:21:25;15.40;76.50
27940;DHT22;15275;51.716;14.324;2023-05-16T00:23:51;15.30;76.60
27940;DHT22;15275;51.716;14.324;2023-05-16T00:26:17;15.30;76.60
27940;DHT22;15275;51.716;14.324;2023-05-16T00:28:43;15.30;76.70
27940;DHT22;15275;51.716;14.324;2023-05-16T00:31:09;15.30;76.70
27940;DHT22;15275;51.716;14.324;2023-05-16T00:33:35;15.20;76.80
27940;DHT22;15275;51.716;14.324;2023-05-16T00:36:01;15.20;76.80
27940;DHT22;15275;51.716;14.324;2023-05-16T00:38:27;15.20;76.80
27940;DHT22;15275;51.716;14.324;2023-05-16T00:40:53;15.20;76.90
27940;DHT22;15275;51.716;14.324;2023-05-16T00:43:19;15.20;76.90
27940;DHT22;15275;51.716;14.324;2023-05-16T00:45:45;15.20;76.90
27940;DHT22;15275;51.716;14.324;2023-05-16T00:48:11;15.20;76.90
27940;DHT22;15275;51.716;14.324;2023-05-16T00:50:38;15.20;76.90
27940;DHT22;15275;51.716;14.324;2023-05-16T00:53:04;15.20;76.90
27940;DHT22;15275;51.716;14.324;2023-05-16T00:55:31;15.10;76.90
27940;DHT22;15275;51.716;14.324;2023-05-16T00:57:57;15.10;76.90
27940;DHT22;15275;51.716;14.324;2023-05-16T01:00:24;15.10;76.90
27940;DHT22;15275;51.716;14.324;2023-05-16T01:02:50;15.10;76.90
27940;DHT22;15275;51.716;14.324;2023-05-16T01:05:21;15.10;76.80
27940;DHT22;15275;51.716;14.324;2023-05-16T01:07:47;15.10;76.80
27940;DHT22;15275;51.716;14.324;2023-05-16T01:10:14;15.00;76.80
27940;DHT22;15275;51.716;14.324;2023-05-16T01:13:11;15.00;76.90
27940;DHT22;15275;51.716;14.324;2023-05-16T01:16:12;15.00;76.80
27940;DHT22;15275;51.716;14.324;2023-05-16T01:21:48;14.90;77.10
27940;DHT22;15275;51.716;14.324;2023-05-16T01:24:39;14.90;77.30
27940;DHT22;15275;51.716;14.324;2023-05-16T01:27:09;14.90;77.40
27940;DHT22;15275;51.716;14.324;2023-05-16T01:29:37;14.90;77.60
27940;DHT22;15275;51.716;14.324;2023-05-16T01:32:03;14.90;77.70
27940;DHT22;15275;51.716;14.324;2023-05-16T01:34:29;14.90;77.80
27940;DHT22;15275;51.716;14.324;2023-05-16T01:37:10;14.90;77.90
27940;DHT22;15275;51.716;14.324;2023-05-16T01:40:15;14.90;78.00
27940;DHT22;15275;51.716;14.324;2023-05-16T01:42:44;14.90;77.80
27940;DHT22;15275;51.716;14.324;2023-05-16T01:45:28;14.90;78.20
27940;DHT22;15275;51.716;14.324;2023-05-16T01:48:23;14.90;78.20
27940;DHT22;15275;51.716;14.324;2023-05-16T01:50:56;14.90;78.00
27940;DHT22;15275;51.716;14.324;2023-05-16T01:53:28;14.90;78.40
27940;DHT22;15275;51.716;14.324;2023-05-16T01:56:01;14.90;78.50
27940;DHT22;15275;51.716;14.324;2023-05-16T01:58:30;14.90;78.50
27940;DHT22;15275;51.716;14.324;2023-05-16T02:01:03;14.90;78.70
27940;DHT22;15275;51.716;14.324;2023-05-16T02:03:30;15.00;78.80
27940;DHT22;15275;51.716;14.324;2023-05-16T02:05:57;15.00;78.80
27940;DHT22;15275;51.716;14.324;2023-05-16T02:08:23;15.00;78.80
27940;DHT22;15275;51.716;14.324;2023-05-16T02:10:51;15.10;78.80
27940;DHT22;15275;51.716;14.324;2023-05-16T02:13:17;15.10;78.80
27940;DHT22;15275;51.716;14.324;2023-05-16T02:15:43;15.10;78.80
27940;DHT22;15275;51.716;14.324;2023-05-16T02:18:10;15.10;78.70
27940;DHT22;15275;51.716;14.324;2023-05-16T02:20:36;15.20;78.60
27940;DHT22;15275;51.716;14.324;2023-05-16T02:23:02;15.20;78.50
27940;DHT22;15275;51.716;14.324;2023-05-16T02:25:28;15.20;78.40
27940;DHT22;15275;51.716;14.324;2023-05-16T02:27:55;15.20;78.30
27940;DHT22;15275;51.716;14.324;2023-05-16T02:30:21;15.20;78.30
27940;DHT22;15275;51.716;14.324;2023-05-16T02:32:47;15.20;78.20
27940;DHT22;15275;51.716;14.324;2023-05-16T02:35:14;15.10;78.20
27940;DHT22;15275;51.716;14.324;2023-05-16T02:37:40;15.10;78.20
27940;DHT22;15275;51.716;14.324;2023-05-16T02:40:07;15.10;78.20
27940;DHT22;15275;51.716;14.324;2023-05-16T02:42:33;15.10;78.20
27940;DHT22;15275;51.716;14.324;2023-05-16T02:44:59;15.10;78.20
27940;DHT22;15275;51.716;14.324;2023-05-16T02:47:25;15.10;78.20
27940;DHT22;15275;51.716;14.324;2023-05-16T02:49:51;15.00;78.20
27940;DHT22;15275;51.716;14.324;2023-05-16T02:52:17;15.00;78.20
27940;DHT22;15275;51.716;14.324;2023-05-16T02:54:44;15.00;78.30
27940;DHT22;15275;51.716;14.324;2023-05-16T02:57:10;15.00;78.30
27940;DHT22;15275;51.716;14.324;2023-05-16T02:59:36;14.90;78.30
27940;DHT22;15275;51.716;14.324;2023-05-16T03:02:02;14.90;78.50
27940;DHT22;15275;51.716;14.324;2023-05-16T03:04:28;14.90;78.50
27940;DHT22;15275;51.716;14.324;2023-05-16T03:06:55;14.90;78.60
27940;DHT22;15275;51.716;14.324;2023-05-16T03:09:21;14.80;78.60
27940;DHT22;15275;51.716;14.324;2023-05-16T03:11:47;14.80;78.60
27940;DHT22;15275;51.716;14.324;2023-05-16T03:14:13;14.80;78.70
27940;DHT22;15275;51.716;14.324;2023-05-16T03:16:39;14.80;78.70
27940;DHT22;15275;51.716;14.324;2023-05-16T03:19:07;14.80;78.80
27940;DHT22;15275;51.716;14.324;2023-05-16T03:21:33;14.80;78.80
27940;DHT22;15275;51.716;14.324;2023-05-16T03:24:00;14.80;78.90
27940;DHT22;15275;51.716;14.324;2023-05-16T03:26:27;14.70;79.10
27940;DHT22;15275;51.716;14.324;2023-05-16T03:28:53;14.70;79.20
27940;DHT22;15275;51.716;14.324;2023-05-16T03:31:19;14.70;79.30
27940;DHT22;15275;51.716;14.324;2023-05-16T03:33:44;14.70;79.40
27940;DHT22;15275;51.716;14.324;2023-05-16T03:36:10;14.70;79.50
27940;DHT22;15275;51.716;14.324;2023-05-16T03:38:37;14.70;79.50
27940;DHT22;15275;51.716;14.324;2023-05-16T03:41:02;14.70;79.50
27940;DHT22;15275;51.716;14.324;2023-05-16T03:43:28;14.70;79.50
27940;DHT22;15275;51.716;14.324;2023-05-16T03:45:54;14.80;79.60
27940;DHT22;15275;51.716;14.324;2023-05-16T03:48:21;14.70;79.60
27940;DHT22;15275;51.716;14.324;2023-05-16T03:50:46;14.70;79.60
27940;DHT22;15275;51.716;14.324;2023-05-16T03:53:12;14.80;79.70
27940;DHT22;15275;51.716;14.324;2023-05-16T03:55:38;14.70;79.80
27940;DHT22;15275;51.716;14.324;2023-05-16T03:58:04;14.70;79.90
27940;DHT22;15275;51.716;14.324;2023-05-16T04:00:30;14.80;80.00
27940;DHT22;15275;51.716;14.324;2023-05-16T04:02:56;14.80;80.00
27940;DHT22;15275;51.716;14.324;2023-05-16T04:05:22;14.80;80.10
27940;DHT22;15275;51.716;14.324;2023-05-16T04:07:48;14.80;80.20
27940;DHT22;15275;51.716;14.324;2023-05-16T04:10:14;14.90;80.20
27940;DHT22;15275;51.716;14.324;2023-05-16T04:12:40;14.90;80.20
27940;DHT22;15275;51.716;14.324;2023-05-16T04:15:06;14.90;80.20
27940;DHT22;15275;51.716;14.324;2023-05-16T04:17:33;14.90;80.20
27940;DHT22;15275;51.716;14.324;2023-05-16T04:19:59;15.00;80.20
27940;DHT22;15275;51.716;14.324;2023-05-16T04:22:25;15.00;80.20
27940;DHT22;15275;51.716;14.324;2023-05-16T04:24:51;15.00;80.20
27940;DHT22;15275;51.716;14.324;2023-05-16T04:27:17;15.10;80.10
27940;DHT22;15275;51.716;14.324;2023-05-16T04:29:43;15.10;80.20
27940;DHT22;15275;51.716;14.324;2023-05-16T04:32:09;15.10;80.20
27940;DHT22;15275;51.716;14.324;2023-05-16T04:34:35;15.10;80.20
27940;DHT22;15275;51.716;14.324;2023-05-16T04:37:06;15.20;80.20
27940;DHT22;15275;51.716;14.324;2023-05-16T04:39:33;15.20;80.20
27940;DHT22;15275;51.716;14.324;2023-05-16T04:42:00;15.20;80.30
27940;DHT22;15275;51.716;14.324;2023-05-16T04:44:26;15.20;80.30
27940;DHT22;15275;51.716;14.324;2023-05-16T04:46:53;15.30;80.30
27940;DHT22;15275;51.716;14.324;2023-05-16T04:49:20;15.30;80.30
27940;DHT22;15275;51.716;14.324;2023-05-16T04:51:47;15.30;80.30
27940;DHT22;15275;51.716;14.324;2023-05-16T04:54:13;15.40;80.20
27940;DHT22;15275;51.716;14.324;2023-05-16T04:56:39;15.40;80.10
27940;DHT22;15275;51.716;14.324;2023-05-16T04:59:05;15.40;80.00
27940;DHT22;15275;51.716;14.324;2023-05-16T05:01:31;15.50;80.00
27940;DHT22;15275;51.716;14.324;2023-05-16T05:03:57;15.50;80.00
27940;DHT22;15275;51.716;14.324;2023-05-16T05:06:23;15.50;80.00
27940;DHT22;15275;51.716;14.324;2023-05-16T05:08:49;15.50;79.90
27940;DHT22;15275;51.716;14.324;2023-05-16T05:11:14;15.50;79.90
27940;DHT22;15275;51.716;14.324;2023-05-16T05:13:40;15.50;79.80
27940;DHT22;15275;51.716;14.324;2023-05-16T05:16:06;15.60;79.80
27940;DHT22;15275;51.716;14.324;2023-05-16T05:18:32;15.60;79.80
27940;DHT22;15275;51.716;14.324;2023-05-16T05:20:58;15.60;79.80
27940;DHT22;15275;51.716;14.324;2023-05-16T05:23:24;15.60;79.60
27940;DHT22;15275;51.716;14.324;2023-05-16T05:25:50;15.60;79.70
27940;DHT22;15275;51.716;14.324;2023-05-16T05:28:16;15.70;79.60
27940;DHT22;15275;51.716;14.324;2023-05-16T05:30:42;15.70;79.60
27940;DHT22;15275;51.716;14.324;2023-05-16T05:33:10;15.70;79.50
27940;DHT22;15275;51.716;14.324;2023-05-16T05:35:36;15.70;79.40
27940;DHT22;15275;51.716;14.324;2023-05-16T05:38:02;15.70;79.40
27940;DHT22;15275;51.716;14.324;2023-05-16T05:40:28;15.70;79.20
27940;DHT22;15275;51.716;14.324;2023-05-16T05:42:54;15.70;79.10
27940;DHT22;15275;51.716;14.324;2023-05-16T05:45:20;15.70;79.10
27940;DHT22;15275;51.716;14.324;2023-05-16T05:47:46;15.80;79.00
27940;DHT22;15275;51.716;14.324;2023-05-16T05:50:12;15.70;78.80
27940;DHT22;15275;51.716;14.324;2023-05-16T05:52:39;15.70;78.80
27940;DHT22;15275;51.716;14.324;2023-05-16T05:55:05;15.70;78.80
27940;DHT22;15275;51.716;14.324;2023-05-16T05:57:31;15.70;78.80
27940;DHT22;15275;51.716;14.324;2023-05-16T05:59:57;15.70;78.80
27940;DHT22;15275;51.716;14.324;2023-05-16T06:02:22;15.70;78.80
27940;DHT22;15275;51.716;14.324;2023-05-16T06:04:48;15.70;78.70
27940;DHT22;15275;51.716;14.324;2023-05-16T06:07:14;15.70;78.70
27940;DHT22;15275;51.716;14.324;2023-05-16T06:09:41;15.60;78.70
27940;DHT22;15275;51.716;14.324;2023-05-16T06:12:08;15.60;78.70
27940;DHT22;15275;51.716;14.324;2023-05-16T06:14:34;15.60;78.70
27940;DHT22;15275;51.716;14.324;2023-05-16T06:17:00;15.60;78.70
27940;DHT22;15275;51.716;14.324;2023-05-16T06:19:25;15.60;78.70
27940;DHT22;15275;51.716;14.324;2023-05-16T06:21:51;15.60;78.70
27940;DHT22;15275;51.716;14.324;2023-05-16T06:24:17;15.60;78.60
27940;DHT22;15275;51.716;14.324;2023-05-16T06:26:43;15.60;78.50
27940;DHT22;15275;51.716;14.324;2023-05-16T06:29:13;15.60;78.30
27940;DHT22;15275;51.716;14.324;2023-05-16T06:31:40;15.60;78.30
27940;DHT22;15275;51.716;14.324;2023-05-16T06:34:06;15.60;78.40
27940;DHT22;15275;51.716;14.324;2023-05-16T06:36:31;15.50;78.30
27940;DHT22;15275;51.716;14.324;2023-05-16T06:38:57;15.50;78.30
27940;DHT22;15275;51.716;14.324;2023-05-16T06:41:23;15.50;78.20
27940;DHT22;15275;51.716;14.324;2023-05-16T06:43:49;15.50;78.00
27940;DHT22;15275;51.716;14.324;2023-05-16T06:46:15;15.40;77.90
27940;DHT22;15275;51.716;14.324;2023-05-16T06:48:40;15.40;77.90
27940;DHT22;15275;51.716;14.324;2023-05-16T06:51:06;15.40;78.00
27940;DHT22;15275;51.716;14.324;2023-05-16T06:53:32;15.30;77.90
27940;DHT22;15275;51.716;14.324;2023-05-16T06:55:58;15.20;77.90
27940;DHT22;15275;51.716;14.324;2023-05-16T06:58:24;15.20;78.00
27940;DHT22;15275;51.716;14.324;2023-05-16T07:00:50;15.20;78.10
27940;DHT22;15275;51.716;14.324;2023-05-16T07:03:15;15.20;78.10
27940;DHT22;15275;51.716;14.324;2023-05-16T07:05:41;15.10;78.00
27940;DHT22;15275;51.716;14.324;2023-05-16T07:08:10;15.10;78.00
27940;DHT22;15275;51.716;14.324;2023-05-16T07:10:39;15.10;78.00
27940;DHT22;15275;51.716;14.324;2023-05-16T07:13:05;15.10;78.00
27940;DHT22;15275;51.716;14.324;2023-05-16T07:15:31;15.10;78.10
27940;DHT22;15275;51.716;14.324;2023-05-16T07:17:57;15.10;78.10
27940;DHT22;15275;51.716;14.324;2023-05-16T07:20:23;15.10;78.00
27940;DHT22;15275;51.716;14.324;2023-05-16T07:22:49;15.10;77.90
27940;DHT22;15275;51.716;14.324;2023-05-16T07:25:15;15.00;77.80
27940;DHT22;15275;51.716;14.324;2023-05-16T07:27:42;15.00;77.80
27940;DHT22;15275;51.716;14.324;2023-05-16T07:30:11;15.00;77.80
27940;DHT22;15275;51.716;14.324;2023-05-16T07:32:37;15.00;77.80
27940;DHT22;15275;51.716;14.324;2023-05-16T07:35:04;14.90;77.70
27940;DHT22;15275;51.716;14.324;2023-05-16T07:37:30;14.90;77.70
27940;DHT22;15275;51.716;14.324;2023-05-16T07:39:56;14.90;77.70
27940;DHT22;15275;51.716;14.324;2023-05-16T07:42:22;14.90;77.80
27940;DHT22;15275;51.716;14.324;2023-05-16T07:44:48;14.90;77.90
27940;DHT22;15275;51.716;14.324;2023-05-16T07:47:13;14.90;77.90
27940;DHT22;15275;51.716;14.324;2023-05-16T07:49:40;14.90;77.90
27940;DHT22;15275;51.716;14.324;2023-05-16T07:52:06;14.90;77.80
27940;DHT22;15275;51.716;14.324;2023-05-16T07:54:34;14.90;77.80
27940;DHT22;15275;51.716;14.324;2023-05-16T07:57:01;14.90;77.80
27940;DHT22;15275;51.716;14.324;2023-05-16T07:59:27;14.90;77.70
27940;DHT22;15275;51.716;14.324;2023-05-16T08:01:53;14.90;77.70
27940;DHT22;15275;51.716;14.324;2023-05-16T08:04:20;14.90;77.70
27940;DHT22;15275;51.716;14.324;2023-05-16T08:06:46;15.00;77.60
27940;DHT22;15275;51.716;14.324;2023-05-16T08:09:12;15.00;77.60
27940;DHT22;15275;51.716;14.324;2023-05-16T08:11:38;15.00;77.60
27940;DHT22;15275;51.716;14.324;2023-05-16T08:14:04;15.00;77.70
27940;DHT22;15275;51.716;14.324;2023-05-16T08:16:30;15.00;77.70
27940;DHT22;15275;51.716;14.324;2023-05-16T08:18:56;15.10;77.80
27940;DHT22;15275;51.716;14.324;2023-05-16T08:21:22;15.20;77.90
27940;DHT22;15275;51.716;14.324;2023-05-16T08:23:48;15.20;77.70
27940;DHT22;15275;51.716;14.324;2023-05-16T08:26:15;15.30;77.50
27940;DHT22;15275;51.716;14.324;2023-05-16T08:28:42;15.30;77.40
27940;DHT22;15275;51.716;14.324;2023-05-16T08:31:08;15.30;77.30
27940;DHT22;15275;51.716;14.324;2023-05-16T08:33:33;15.40;77.10
27940;DHT22;15275;51.716;14.324;2023-05-16T08:36:00;15.40;76.90
27940;DHT22;15275;51.716;14.324;2023-05-16T08:38:25;15.30;77.00
27940;DHT22;15275;51.716;14.324;2023-05-16T08:40:51;15.30;77.10
27940;DHT22;15275;51.716;14.324;2023-05-16T08:43:17;15.40;77.00
27940;DHT22;15275;51.716;14.324;2023-05-16T08:45:43;15.40;76.90
27940;DHT22;15275;51.716;14.324;2023-05-16T08:48:10;15.40;77.00
27940;DHT22;15275;51.716;14.324;2023-05-16T08:50:38;15.40;76.90
27940;DHT22;15275;51.716;14.324;2023-05-16T08:53:06;15.40;77.00
27940;DHT22;15275;51.716;14.324;2023-05-16T08:55:35;15.40;76.80
27940;DHT22;15275;51.716;14.324;2023-05-16T08:58:01;15.40;76.70
27940;DHT22;15275;51.716;14.324;2023-05-16T09:00:28;15.40;76.70
27940;DHT22;15275;51.716;14.324;2023-05-16T09:02:54;15.50;76.70
27940;DHT22;15275;51.716;14.324;2023-05-16T09:05:21;15.50;76.70
27940;DHT22;15275;51.716;14.324;2023-05-16T09:07:48;15.50;76.70
27940;DHT22;15275;51.716;14.324;2023-05-16T09:10:14;15.50;76.70
27940;DHT22;15275;51.716;14.324;2023-05-16T09:12:41;15.50;76.80
27940;DHT22;15275;51.716;14.324;2023-05-16T09:15:08;15.50;76.60
27940;DHT22;15275;51.716;14.324;2023-05-16T09:17:36;15.50;76.50
27940;DHT22;15275;51.716;14.324;2023-05-16T09:20:18;15.60;76.60
27940;DHT22;15275;51.716;14.324;2023-05-16T09:22:53;15.60;76.20
27940;DHT22;15275;51.716;14.324;2023-05-16T09:25:21;15.60;76.40
27940;DHT22;15275;51.716;14.324;2023-05-16T09:27:52;15.60;76.60
27940;DHT22;15275;51.716;14.324;2023-05-16T09:30:22;15.60;76.30
27940;DHT22;15275;51.716;14.324;2023-05-16T09:32:52;15.70;76.50
27940;DHT22;15275;51.716;14.324;2023-05-16T09:35:19;15.70;76.30
27940;DHT22;15275;51.716;14.324;2023-05-16T09:37:46;15.70;76.20
27940;DHT22;15275;51.716;14.324;2023-05-16T09:40:13;15.70;76.30
27940;DHT22;15275;51.716;14.324;2023-05-16T09:42:41;15.80;76.20
27940;DHT22;15275;51.716;14.324;2023-05-16T09:45:12;15.80;76.10
27940;DHT22;15275;51.716;14.324;2023-05-16T09:47:38;15.80;76.00
27940;DHT22;15275;51.716;14.324;2023-05-16T09:50:12;15.80;76.00
27940;DHT22;15275;51.716;14.324;2023-05-16T09:52:39;15.80;75.90
27940;DHT22;15275;51.716;14.324;2023-05-16T09:55:07;15.90;76.00
27940;DHT22;15275;51.716;14.324;2023-05-16T09:57:36;15.90;76.00
27940;DHT22;15275;51.716;14.324;2023-05-16T10:00:09;15.90;75.90
27940;DHT22;15275;51.716;14.324;2023-05-16T10:02:37;16.00;76.00
27940;DHT22;15275;51.716;14.324;2023-05-16T10:05:04;16.00;76.00
27940;DHT22;15275;51.716;14.324;2023-05-16T10:07:31;16.10;76.00
27940;DHT22;15275;51.716;14.324;2023-05-16T10:10:05;16.10;75.90
27940;DHT22;15275;51.716;14.324;2023-05-16T10:12:33;16.10;75.90
27940;DHT22;15275;51.716;14.324;2023-05-16T10:15:04;16.20;75.80
27940;DHT22;15275;51.716;14.324;2023-05-16T10:17:32;16.20;75.30
27940;DHT22;15275;51.716;14.324;2023-05-16T10:20:02;16.20;75.20
27940;DHT22;15275;51.716;14.324;2023-05-16T10:22:35;16.20;75.30
27940;DHT22;15275;51.716;14.324;2023-05-16T10:27:54;16.20;74.50
27940;DHT22;15275;51.716;14.324;2023-05-16T10:30:21;16.10;75.40
27940;DHT22;15275;51.716;14.324;2023-05-16T10:32:48;16.10;75.40
27940;DHT22;15275;51.716;14.324;2023-05-16T10:35:14;16.20;75.60
27940;DHT22;15275;51.716;14.324;2023-05-16T10:37:41;16.20;75.70
27940;DHT22;15275;51.716;14.324;2023-05-16T10:40:08;16.20;75.70
27940;DHT22;15275;51.716;14.324;2023-05-16T10:42:34;16.30;75.60
27940;DHT22;15275;51.716;14.324;2023-05-16T10:45:19;16.30;75.50
27940;DHT22;15275;51.716;14.324;2023-05-16T10:48:03;16.30;74.30
27940;DHT22;15275;51.716;14.324;2023-05-16T10:50:36;16.40;74.50
27940;DHT22;15275;51.716;14.324;2023-05-16T10:53:36;16.40;74.90
27940;DHT22;15275;51.716;14.324;2023-05-16T11:06:31;16.70;74.50
27940;DHT22;15275;51.716;14.324;2023-05-16T11:09:20;16.70;75.00
27940;DHT22;15275;51.716;14.324;2023-05-16T11:17:14;16.90;74.10
27940;DHT22;15275;51.716;14.324;2023-05-16T11:19:50;16.90;74.20
27940;DHT22;15275;51.716;14.324;2023-05-16T11:22:22;16.90;74.20
27940;DHT22;15275;51.716;14.324;2023-05-16T11:24:59;17.00;73.60
27940;DHT22;15275;51.716;14.324;2023-05-16T11:27:31;17.00;73.30
27940;DHT22;15275;51.716;14.324;2023-05-16T11:32:41;17.00;72.90
27940;DHT22;15275;51.716;14.324;2023-05-16T11:35:11;16.90;73.20
27940;DHT22;15275;51.716;14.324;2023-05-16T11:37:39;16.90;73.20
27940;DHT22;15275;51.716;14.324;2023-05-16T11:40:07;16.80;73.20
27940;DHT22;15275;51.716;14.324;2023-05-16T11:42:40;16.80;73.10
27940;DHT22;15275;51.716;14.324;2023-05-16T11:45:08;16.80;73.20
27940;DHT22;15275;51.716;14.324;2023-05-16T11:47:37;16.80;73.30
27940;DHT22;15275;51.716;14.324;2023-05-16T11:50:20;16.80;73.30
27940;DHT22;15275;51.716;14.324;2023-05-16T11:52:52;16.80;72.80
27940;DHT22;15275;51.716;14.324;2023-05-16T11:55:36;16.80;73.10
27940;DHT22;15275;51.716;14.324;2023-05-16T11:58:03;16.90;72.20
27940;DHT22;15275;51.716;14.324;2023-05-16T12:00:29;16.90;73.40
27940;DHT22;15275;51.716;14.324;2023-05-16T12:03:02;16.90;73.10
27940;DHT22;15275;51.716;14.324;2023-05-16T12:05:32;17.00;72.50
27940;DHT22;15275;51.716;14.324;2023-05-16T12:07:58;17.00;72.90
27940;DHT22;15275;51.716;14.324;2023-05-16T12:10:24;17.00;72.60
27940;DHT22;15275;51.716;14.324;2023-05-16T12:12:51;17.00;72.60
27940;DHT22;15275;51.716;14.324;2023-05-16T12:15:17;17.00;72.50
27940;DHT22;15275;51.716;14.324;2023-05-16T12:17:44;17.00;72.30
27940;DHT22;15275;51.716;14.324;2023-05-16T12:20:12;17.00;72.20
27940;DHT22;15275;51.716;14.324;2023-05-16T12:22:39;16.90;72.30
27940;DHT22;15275;51.716;14.324;2023-05-16T12:25:27;16.90;72.40
27940;DHT22;15275;51.716;14.324;2023-05-16T12:27:56;16.90;71.50
27940;DHT22;15275;51.716;14.324;2023-05-16T12:30:24;16.90;72.60
27940;DHT22;15275;51.716;14.324;2023-05-16T12:33:02;16.90;72.70
27940;DHT22;15275;51.716;14.324;2023-05-16T12:35:34;17.00;71.80
27940;DHT22;15275;51.716;14.324;2023-05-16T12:38:06;17.00;72.70
27940;DHT22;15275;51.716;14.324;2023-05-16T12:40:33;17.10;72.30
27940;DHT22;15275;51.716;14.324;2023-05-16T12:43:01;17.20;72.60
27940;DHT22;15275;51.716;14.324;2023-05-16T12:45:27;17.30;72.50
27940;DHT22;15275;51.716;14.324;2023-05-16T12:47:53;17.30;72.40
27940;DHT22;15275;51.716;14.324;2023-05-16T12:50:19;17.40;72.20
27940;DHT22;15275;51.716;14.324;2023-05-16T12:52:50;17.50;71.90
27940;DHT22;15275;51.716;14.324;2023-05-16T12:55:18;17.60;71.50
27940;DHT22;15275;51.716;14.324;2023-05-16T12:57:46;17.70;71.60
27940;DHT22;15275;51.716;14.324;2023-05-16T13:00:15;17.70;71.30
27940;DHT22;15275;51.716;14.324;2023-05-16T13:02:43;17.80;71.30
27940;DHT22;15275;51.716;14.324;2023-05-16T13:05:10;17.90;71.30
27940;DHT22;15275;51.716;14.324;2023-05-16T13:07:37;17.90;71.10
27940;DHT22;15275;51.716;14.324;2023-05-16T13:10:09;17.90;70.80
27940;DHT22;15275;51.716;14.324;2023-05-16T13:12:36;18.00;70.30
27940;DHT22;15275;51.716;14.324;2023-05-16T13:15:04;18.00;70.60
27940;DHT22;15275;51.716;14.324;2023-05-16T13:17:35;18.00;70.40
27940;DHT22;15275;51.716;14.324;2023-05-16T13:20:03;18.10;70.40
27940;DHT22;15275;51.716;14.324;2023-05-16T13:22:43;18.10;70.20
27940;DHT22;15275;51.716;14.324;2023-05-16T13:25:09;18.20;70.10
27940;DHT22;15275;51.716;14.324;2023-05-16T13:27:36;18.20;70.00
27940;DHT22;15275;51.716;14.324;2023-05-16T13:30:02;18.20;69.60
27940;DHT22;15275;51.716;14.324;2023-05-16T13:32:28;18.20;69.50
27940;DHT22;15275;51.716;14.324;2023-05-16T13:34:54;18.20;69.50
27940;DHT22;15275;51.716;14.324;2023-05-16T13:37:21;18.20;69.50
27940;DHT22;15275;51.716;14.324;2023-05-16T13:39:48;18.10;69.70
27940;DHT22;15275;51.716;14.324;2023-05-16T13:42:15;18.10;69.60
27940;DHT22;15275;51.716;14.324;2023-05-16T13:44:40;18.10;69.50
27940;DHT22;15275;51.716;14.324;2023-05-16T13:47:07;18.00;69.50
27940;DHT22;15275;51.716;14.324;2023-05-16T13:49:33;18.00;69.50
27940;DHT22;15275;51.716;14.324;2023-05-16T13:51:59;17.90;69.60
27940;DHT22;15275;51.716;14.324;2023-05-16T13:54:26;17.90;69.50
27940;DHT22;15275;51.716;14.324;2023-05-16T13:56:52;17.80;69.50
27940;DHT22;15275;51.716;14.324;2023-05-16T13:59:18;17.80;69.50
27940;DHT22;15275;51.716;14.324;2023-05-16T14:01:44;17.80;69.40
27940;DHT22;15275;51.716;14.324;2023-05-16T14:04:10;17.80;69.40
27940;DHT22;15275;51.716;14.324;2023-05-16T14:06:36;17.80;69.50
27940;DHT22;15275;51.716;14.324;2023-05-16T14:09:02;17.80;69.50
27940;DHT22;15275;51.716;14.324;2023-05-16T14:11:28;17.80;69.60
27940;DHT22;15275;51.716;14.324;2023-05-16T14:13:54;17.80;69.60
27940;DHT22;15275;51.716;14.324;2023-05-16T14:16:20;17.80;69.60
27940;DHT22;15275;51.716;14.324;2023-05-16T14:18:47;17.90;69.50
27940;DHT22;15275;51.716;14.324;2023-05-16T14:21:13;17.90;69.40
27940;DHT22;15275;51.716;14.324;2023-05-16T14:23:39;17.90;69.40
27940;DHT22;15275;51.716;14.324;2023-05-16T14:26:05;17.90;69.10
27940;DHT22;15275;51.716;14.324;2023-05-16T14:28:31;17.90;69.10
27940;DHT22;15275;51.716;14.324;2023-05-16T14:30:58;17.80;69.00
27940;DHT22;15275;51.716;14.324;2023-05-16T14:33:24;17.80;69.00
27940;DHT22;15275;51.716;14.324;2023-05-16T14:35:50;17.80;69.20
27940;DHT22;15275;51.716;14.324;2023-05-16T14:38:18;17.70;69.30
27940;DHT22;15275;51.716;14.324;2023-05-16T14:40:44;17.70;69.10
27940;DHT22;15275;51.716;14.324;2023-05-16T14:43:10;17.70;69.20
27940;DHT22;15275;51.716;14.324;2023-05-16T14:45:37;17.60;69.10
27940;DHT22;15275;51.716;14.324;2023-05-16T14:48:05;17.60;69.10
27940;DHT22;15275;51.716;14.324;2023-05-16T14:50:31;17.50;68.90
27940;DHT22;15275;51.716;14.324;2023-05-16T14:52:57;17.50;69.20
27940;DHT22;15275;51.716;14.324;2023-05-16T14:55:23;17.40;69.40
27940;DHT22;15275;51.716;14.324;2023-05-16T14:57:50;17.40;69.40
27940;DHT22;15275;51.716;14.324;2023-05-16T15:00:16;17.40;69.50
27940;DHT22;15275;51.716;14.324;2023-05-16T15:02:42;17.40;69.60
27940;DHT22;15275;51.716;14.324;2023-05-16T15:05:09;17.40;69.50
27940;DHT22;15275;51.716;14.324;2023-05-16T15:07:34;17.40;69.50
27940;DHT22;15275;51.716;14.324;2023-05-16T15:10:00;17.40;69.50
27940;DHT22;15275;51.716;14.324;2023-05-16T15:12:26;17.30;69.60
27940;DHT22;15275;51.716;14.324;2023-05-16T15:14:52;17.40;69.60
27940;DHT22;15275;51.716;14.324;2023-05-16T15:17:18;17.40;69.60
27940;DHT22;15275;51.716;14.324;2023-05-16T15:19:44;17.40;69.60
27940;DHT22;15275;51.716;14.324;2023-05-16T15:22:12;17.40;69.50
27940;DHT22;15275;51.716;14.324;2023-05-16T15:24:38;17.40;69.50
27940;DHT22;15275;51.716;14.324;2023-05-16T15:27:03;17.40;69.40
27940;DHT22;15275;51.716;14.324;2023-05-16T15:29:30;17.30;69.50
27940;DHT22;15275;51.716;14.324;2023-05-16T15:31:56;17.30;69.40
27940;DHT22;15275;51.716;14.324;2023-05-16T15:34:22;17.30;69.40
27940;DHT22;15275;51.716;14.324;2023-05-16T15:36:49;17.30;69.50
27940;DHT22;15275;51.716;14.324;2023-05-16T15:39:15;17.30;69.60
27940;DHT22;15275;51.716;14.324;2023-05-16T15:41:41;17.30;69.70
27940;DHT22;15275;51.716;14.324;2023-05-16T15:44:07;17.30;69.90